Terminal Aerodrome Forecast
Issued by NWS

Home | Current Version | Previous Version | Text Only | Print | Product List | Glossary On
Versions: 1 2 3 4 5 6 7 8 9 10 11 12 13
000
FTUS41 KCLE 260500
TAFFDY
TAF
KFDY 260520Z 2606/2706 04011KT P6SM OVC100
     FM261000 03007KT P6SM SKC
     FM261600 02012G16KT P6SM SCT045
     FM262000 01014G20KT P6SM BKN045 OVC120
     FM270100 02006KT P6SM OVC050=

USA.gov is the U.S. government's official web portal to all federal, state and local government web resources and services.